createdAt,value
2022-09-28T00:01:09.421Z,58.23
2022-09-28T00:03:36.672Z,58.50
2022-09-28T00:06:06.219Z,58.65
2022-09-28T00:08:33.922Z,58.30
2022-09-28T00:11:01.267Z,58.52
2022-09-28T00:13:28.325Z,58.80
2022-09-28T00:16:07.179Z,57.92
2022-09-28T00:18:34.650Z,58.51
2022-09-28T00:21:26.905Z,57.96
2022-09-28T00:24:15.567Z,58.61
2022-09-28T00:26:49.393Z,57.79
2022-09-28T00:29:17.759Z,57.74
2022-09-28T00:31:44.892Z,58.07
2022-09-28T00:34:12.600Z,57.81
2022-09-28T00:36:39.262Z,58.28
2022-09-28T00:39:08.426Z,58.10
2022-09-28T00:41:35.859Z,58.04
2022-09-28T00:44:21.133Z,58.60
2022-09-28T00:46:49.734Z,58.17
2022-09-28T00:49:18.988Z,58.48
2022-09-28T00:51:47.276Z,58.46
2022-09-28T00:54:16.252Z,57.69
2022-09-28T00:56:45.708Z,58.63
2022-09-28T00:59:12.342Z,58.41
2022-09-28T01:01:39.031Z,57.86
2022-09-28T01:04:06.490Z,58.32
2022-09-28T01:06:38.070Z,57.75
2022-09-28T01:09:07.680Z,58.60
2022-09-28T01:11:37.721Z,58.76
2022-09-28T01:14:08.304Z,58.14
2022-09-28T01:16:41.655Z,58.58
2022-09-28T01:19:36.729Z,58.53
2022-09-28T01:22:34.180Z,58.40
2022-09-28T01:25:10.231Z,58.50
2022-09-28T01:27:41.945Z,58.36
2022-09-28T01:30:12.093Z,57.56
2022-09-28T01:32:47.156Z,57.74
2022-09-28T01:35:35.641Z,57.77
2022-09-28T01:38:12.609Z,58.09
2022-09-28T01:40:40.759Z,58.74
2022-09-28T01:43:16.014Z,58.66
2022-09-28T01:45:47.134Z,57.91
2022-09-28T01:48:21.414Z,58.71
2022-09-28T01:50:54.693Z,58.45
2022-09-28T01:53:41.770Z,58.64
2022-09-28T01:56:13.191Z,58.44
2022-09-28T01:58:50.938Z,58.40
2022-09-28T02:01:27.452Z,58.69
2022-09-28T02:04:04.768Z,57.69
2022-09-28T02:06:41.209Z,58.68
2022-09-28T02:09:11.734Z,58.91
2022-09-28T02:11:43.519Z,58.19
2022-09-28T02:14:15.305Z,58.49
2022-09-28T02:16:42.969Z,58.54
2022-09-28T02:19:28.077Z,58.64
2022-09-28T02:22:29.168Z,57.78
2022-09-28T02:24:59.989Z,57.89
2022-09-28T02:27:35.496Z,58.00
2022-09-28T02:30:04.395Z,57.89
2022-09-28T02:32:33.823Z,58.61
2022-09-28T02:35:00.432Z,58.31
2022-09-28T02:37:28.223Z,58.86
2022-09-28T02:39:55.430Z,59.21
2022-09-28T02:42:34.500Z,58.86
2022-09-28T02:45:22.119Z,59.68
2022-09-28T02:47:55.597Z,59.65
2022-09-28T02:50:40.289Z,59.78
2022-09-28T02:53:19.777Z,59.13
2022-09-28T02:56:00.652Z,59.42
2022-09-28T02:59:04.632Z,58.73
2022-09-28T03:02:01.564Z,58.90
2022-09-28T03:04:56.699Z,58.99
2022-09-28T03:07:29.148Z,59.54
2022-09-28T03:10:10.581Z,59.53
2022-09-28T03:12:38.994Z,59.54
2022-09-28T03:15:10.110Z,58.73
2022-09-28T03:17:36.883Z,58.94
2022-09-28T03:20:05.406Z,59.27
2022-09-28T03:22:32.046Z,58.84
2022-09-28T03:24:58.587Z,59.26
2022-09-28T03:27:25.161Z,59.27
2022-09-28T03:29:51.719Z,59.00
2022-09-28T03:32:18.310Z,59.74
2022-09-28T03:34:44.870Z,59.65
2022-09-28T03:37:11.437Z,59.40
2022-09-28T03:39:38.011Z,58.85
2022-09-28T03:42:04.620Z,58.80
2022-09-28T03:44:31.296Z,58.91
2022-09-28T03:46:57.909Z,59.36
2022-09-28T03:49:24.524Z,59.42
2022-09-28T03:51:51.781Z,59.55
2022-09-28T03:54:19.055Z,58.74
2022-09-28T03:56:45.692Z,59.48
2022-09-28T03:59:12.285Z,59.18
2022-09-28T04:01:38.951Z,58.63
2022-09-28T04:04:05.640Z,58.70
2022-09-28T04:06:32.201Z,59.54
2022-09-28T04:08:58.794Z,58.91
2022-09-28T04:11:25.342Z,59.25
2022-09-28T04:13:51.991Z,59.52
2022-09-28T04:16:19.085Z,59.57
2022-09-28T04:18:47.117Z,59.55
2022-09-28T04:21:16.134Z,59.55
2022-09-28T04:23:43.278Z,59.30
2022-09-28T04:26:21.890Z,58.77
2022-09-28T04:29:07.808Z,59.27
2022-09-28T04:31:40.094Z,58.60
2022-09-28T04:34:06.798Z,58.35
2022-09-28T04:36:33.538Z,58.93
2022-09-28T04:39:00.304Z,58.48
2022-09-28T04:41:27.172Z,58.51
2022-09-28T04:43:53.746Z,59.32
2022-09-28T04:46:20.504Z,58.89
2022-09-28T04:48:47.136Z,59.05
2022-09-28T04:51:13.814Z,59.25
2022-09-28T04:53:40.503Z,58.74
2022-09-28T04:56:10.708Z,58.57
2022-09-28T04:58:37.782Z,59.34
2022-09-28T05:01:11.427Z,58.86
2022-09-28T05:03:38.311Z,58.67
2022-09-28T05:06:06.929Z,59.06
2022-09-28T05:08:35.308Z,58.33
2022-09-28T05:11:04.865Z,59.11
2022-09-28T05:13:40.706Z,59.07
2022-09-28T05:16:08.272Z,58.28
2022-09-28T05:18:34.863Z,58.82
2022-09-28T05:21:01.741Z,58.96
2022-09-28T05:23:28.300Z,58.52
2022-09-28T05:25:54.893Z,58.90
2022-09-28T05:28:28.253Z,58.64
2022-09-28T05:31:02.246Z,58.55
2022-09-28T05:33:29.689Z,58.65
2022-09-28T05:36:00.914Z,58.31
2022-09-28T05:38:28.413Z,58.42
2022-09-28T05:40:55.176Z,58.99
2022-09-28T05:43:22.280Z,58.71
2022-09-28T05:45:54.294Z,58.43
2022-09-28T05:48:22.563Z,57.96
2022-09-28T05:50:52.591Z,58.96
2022-09-28T05:53:19.298Z,59.10
2022-09-28T05:55:45.942Z,58.17
2022-09-28T05:58:12.617Z,59.14
2022-09-28T06:00:39.442Z,59.28
2022-09-28T06:03:09.624Z,59.15
2022-09-28T06:05:36.914Z,58.05
2022-09-28T06:08:05.319Z,59.23
2022-09-28T06:10:33.231Z,59.15
2022-09-28T06:13:00.437Z,57.79
2022-09-28T06:15:30.281Z,58.53
2022-09-28T06:18:04.311Z,57.97
2022-09-28T06:20:34.150Z,57.57
2022-09-28T06:23:00.701Z,58.27
2022-09-28T06:25:30.271Z,57.44
2022-09-28T06:27:59.106Z,57.70
2022-09-28T06:30:27.420Z,56.86
2022-09-28T06:32:55.983Z,56.68
2022-09-28T06:35:24.581Z,56.45
2022-09-28T06:37:51.744Z,57.17
2022-09-28T06:40:19.726Z,57.01
2022-09-28T06:42:58.702Z,57.13
2022-09-28T06:45:26.624Z,56.92
2022-09-28T06:48:03.089Z,56.97
2022-09-28T06:50:41.207Z,56.39
2022-09-28T06:53:10.541Z,56.65
2022-09-28T06:55:49.199Z,56.88
2022-09-28T06:58:20.044Z,57.46
2022-09-28T07:00:48.112Z,57.87
2022-09-28T07:03:20.107Z,57.31
2022-09-28T07:05:49.604Z,58.16
2022-09-28T07:08:17.680Z,57.19
2022-09-28T07:10:49.036Z,57.11
2022-09-28T07:13:44.152Z,57.92
2022-09-28T07:16:03.799Z,57.17
2022-09-28T07:18:30.498Z,57.45
2022-09-28T07:20:57.460Z,57.60
2022-09-28T07:23:27.466Z,57.87
2022-09-28T07:25:54.403Z,57.06
2022-09-28T07:28:21.747Z,57.40
2022-09-28T07:30:48.403Z,57.11
2022-09-28T07:33:16.042Z,56.97
2022-09-28T07:35:50.719Z,57.57
2022-09-28T07:38:17.276Z,56.80
2022-09-28T07:41:02.569Z,56.84
2022-09-28T07:43:29.243Z,57.18
2022-09-28T07:45:55.950Z,57.54
2022-09-28T07:48:23.189Z,57.42
2022-09-28T07:50:54.537Z,57.06
2022-09-28T07:53:22.954Z,56.61
2022-09-28T07:55:54.322Z,57.84
2022-09-28T07:58:21.284Z,56.83
2022-09-28T08:00:49.919Z,56.97
2022-09-28T08:03:17.560Z,56.87
2022-09-28T08:05:44.389Z,56.56
2022-09-28T08:08:11.583Z,57.30
2022-09-28T08:10:38.346Z,56.53
2022-09-28T08:13:07.536Z,57.11
2022-09-28T08:15:37.063Z,57.06
2022-09-28T08:18:07.212Z,56.88
2022-09-28T08:20:52.760Z,56.76
2022-09-28T08:23:20.387Z,56.01
2022-09-28T08:25:52.608Z,56.58
2022-09-28T08:28:19.603Z,57.12
2022-09-28T08:30:47.409Z,57.27
2022-09-28T08:33:15.731Z,56.94
2022-09-28T08:35:42.604Z,56.59
2022-09-28T08:38:09.714Z,57.60
2022-09-28T08:41:05.959Z,57.56
2022-09-28T08:43:52.060Z,57.56
2022-09-28T08:46:26.361Z,57.51
2022-09-28T08:49:24.093Z,57.35
2022-09-28T08:52:05.624Z,56.79
2022-09-28T08:55:01.451Z,57.15
2022-09-28T08:57:38.770Z,54.28
2022-09-28T09:00:11.004Z,53.87
2022-09-28T09:02:39.889Z,54.25
2022-09-28T09:05:14.799Z,54.68
2022-09-28T09:08:36.805Z,54.01
2022-09-28T09:11:31.314Z,51.75
2022-09-28T09:14:21.793Z,50.10
2022-09-28T09:17:22.411Z,48.86
2022-09-28T09:20:04.644Z,47.71
2022-09-28T09:22:49.424Z,45.85
2022-09-28T09:25:38.782Z,45.64
2022-09-28T09:28:53.183Z,47.41
2022-09-28T09:31:33.418Z,49.43
2022-09-28T09:34:15.371Z,49.09
2022-09-28T09:36:41.994Z,49.45
2022-09-28T09:39:21.652Z,49.74
2022-09-28T09:42:14.626Z,50.70
2022-09-28T09:44:56.609Z,49.83
2022-09-28T09:47:38.668Z,50.96
2022-09-28T09:50:15.081Z,50.87
2022-09-28T09:52:55.762Z,51.11
2022-09-28T09:55:30.196Z,50.82
2022-09-28T09:58:09.998Z,50.73
2022-09-28T10:00:42.882Z,51.61
2022-09-28T10:03:31.351Z,51.52
2022-09-28T10:06:06.964Z,50.83
2022-09-28T10:08:44.118Z,52.51
2022-09-28T10:11:15.513Z,53.76
2022-09-28T10:13:42.853Z,54.40
2022-09-28T10:16:09.521Z,55.34
2022-09-28T10:18:36.730Z,55.49
2022-09-28T10:21:03.523Z,55.34
2022-09-28T10:23:34.086Z,56.26
2022-09-28T10:26:06.444Z,56.69
2022-09-28T10:29:14.689Z,56.83
2022-09-28T10:31:48.441Z,56.54
2022-09-28T10:34:18.832Z,56.91
2022-09-28T10:37:01.428Z,55.97
2022-09-28T10:39:37.407Z,57.15
2022-09-28T10:42:09.745Z,56.54
2022-09-28T10:44:56.075Z,56.16
2022-09-28T10:47:26.375Z,56.93
2022-09-28T10:49:54.973Z,56.90
2022-09-28T10:52:36.695Z,56.74
2022-09-28T10:55:25.238Z,57.15
2022-09-28T10:57:52.996Z,56.58
2022-09-28T11:00:36.650Z,56.17
2022-09-28T11:03:03.643Z,57.18
2022-09-28T11:05:31.330Z,56.44
2022-09-28T11:08:00.871Z,57.16
2022-09-28T11:10:30.433Z,56.58
2022-09-28T11:12:58.001Z,57.41
2022-09-28T11:15:32.127Z,56.47
2022-09-28T11:18:31.465Z,57.37
2022-09-28T11:21:12.248Z,56.97
2022-09-28T11:23:42.142Z,56.34
2022-09-28T11:26:09.532Z,56.82
2022-09-28T11:28:37.558Z,57.38
2022-09-28T11:31:07.989Z,57.22
2022-09-28T11:33:45.141Z,56.67
2022-09-28T11:36:14.561Z,57.25
2022-09-28T11:38:47.457Z,56.80
2022-09-28T11:41:35.164Z,56.88
2022-09-28T11:44:36.343Z,57.29
2022-09-28T11:47:22.708Z,57.59
2022-09-28T11:50:01.988Z,57.49
2022-09-28T11:52:28.575Z,57.63
2022-09-28T11:55:01.268Z,57.62
2022-09-28T11:57:37.586Z,57.20
2022-09-28T12:00:11.851Z,57.63
2022-09-28T12:02:59.590Z,57.63
2022-09-28T12:05:30.363Z,58.07
2022-09-28T12:08:19.949Z,57.36
2022-09-28T12:11:09.804Z,57.73
2022-09-28T12:13:44.648Z,57.92
2022-09-28T12:16:53.054Z,57.13
2022-09-28T12:19:30.933Z,56.91
2022-09-28T12:22:05.217Z,57.15
2022-09-28T12:24:38.788Z,57.17
2022-09-28T12:27:41.179Z,57.76
2022-09-28T12:30:27.685Z,57.03
2022-09-28T12:33:07.014Z,57.46
2022-09-28T12:35:44.916Z,57.31
2022-09-28T12:38:46.001Z,57.10
2022-09-28T12:41:33.541Z,57.75
2022-09-28T12:44:13.187Z,56.84
2022-09-28T12:46:57.984Z,57.74
2022-09-28T12:50:36.956Z,57.54
2022-09-28T12:52:58.116Z,57.42
2022-09-28T12:55:56.549Z,57.52
2022-09-28T12:58:41.199Z,57.54
2022-09-28T13:01:44.248Z,57.41
2022-09-28T13:04:24.708Z,57.89
2022-09-28T13:07:06.328Z,57.46
2022-09-28T13:09:58.490Z,57.74
2022-09-28T13:13:18.274Z,57.60
2022-09-28T13:15:47.458Z,57.83
2022-09-28T13:18:29.216Z,57.57
2022-09-28T13:21:09.791Z,57.86
2022-09-28T13:23:45.725Z,58.21
2022-09-28T13:26:23.668Z,58.08
2022-09-28T13:28:54.727Z,58.04
2022-09-28T13:31:33.196Z,58.43
2022-09-28T13:34:03.520Z,58.00
2022-09-28T13:36:32.558Z,57.46
2022-09-28T13:39:00.960Z,57.18
2022-09-28T13:41:35.468Z,57.10
2022-09-28T13:44:11.153Z,56.76
2022-09-28T13:47:01.584Z,56.93
2022-09-28T13:49:52.906Z,57.75
2022-09-28T13:52:49.801Z,56.58
2022-09-28T13:55:32.971Z,56.37
2022-09-28T13:58:06.597Z,57.04
2022-09-28T14:00:50.557Z,56.84
2022-09-28T14:03:42.911Z,56.23
2022-09-28T14:06:25.533Z,55.68
2022-09-28T14:09:09.337Z,55.70
2022-09-28T14:11:35.845Z,55.63
2022-09-28T14:14:08.356Z,55.91
2022-09-28T14:16:36.963Z,56.23
2022-09-28T14:19:07.784Z,55.61
2022-09-28T14:21:47.906Z,55.36
2022-09-28T14:24:36.589Z,56.22
2022-09-28T14:27:37.223Z,55.79
2022-09-28T14:30:12.750Z,56.46
2022-09-28T14:32:55.055Z,55.96
2022-09-28T14:35:41.695Z,56.80
2022-09-28T14:38:39.660Z,56.06
2022-09-28T14:41:27.970Z,56.47
2022-09-28T14:43:59.405Z,56.41
2022-09-28T14:46:27.149Z,55.84
2022-09-28T14:48:55.304Z,56.04
2022-09-28T14:51:24.682Z,56.70
2022-09-28T14:53:52.776Z,56.49
2022-09-28T14:56:20.582Z,56.80
2022-09-28T14:58:54.363Z,56.46
2022-09-28T15:01:24.666Z,56.90
2022-09-28T15:04:02.149Z,56.39
2022-09-28T15:06:44.475Z,56.68
2022-09-28T15:09:31.935Z,56.74
2022-09-28T15:12:12.182Z,55.75
2022-09-28T15:14:48.912Z,56.60
2022-09-28T15:17:39.766Z,56.70
2022-09-28T15:20:29.937Z,56.14
2022-09-28T15:22:58.712Z,56.67
2022-09-28T15:25:28.216Z,56.77
2022-09-28T15:28:11.560Z,56.16
2022-09-28T15:30:38.291Z,56.72
2022-09-28T15:33:23.371Z,56.43
2022-09-28T15:36:04.693Z,56.56
2022-09-28T15:38:35.086Z,56.50
2022-09-28T15:41:07.136Z,56.63
2022-09-28T15:43:34.726Z,57.28
2022-09-28T15:46:18.212Z,57.04
2022-09-28T15:48:59.557Z,57.54
2022-09-28T15:51:27.504Z,57.40
2022-09-28T15:54:09.318Z,56.78
2022-09-28T15:57:02.462Z,57.05
2022-09-28T15:59:39.791Z,57.96
2022-09-28T16:02:15.033Z,57.80
2022-09-28T16:04:56.166Z,57.43
2022-09-28T16:07:56.329Z,57.56
2022-09-28T16:10:33.654Z,57.82
2022-09-28T16:13:29.398Z,58.02
2022-09-28T16:16:00.245Z,57.27
2022-09-28T16:18:29.531Z,57.91
2022-09-28T16:21:18.890Z,57.14
2022-09-28T16:23:51.776Z,57.70
2022-09-28T16:26:29.888Z,57.75
2022-09-28T16:28:56.493Z,58.20
2022-09-28T16:31:29.235Z,57.88
2022-09-28T16:34:20.290Z,57.55
2022-09-28T16:36:48.980Z,58.00
2022-09-28T16:39:17.354Z,57.97
2022-09-28T16:41:52.420Z,57.10
2022-09-28T16:44:24.223Z,58.10
2022-09-28T16:46:53.906Z,57.23
2022-09-28T16:49:20.973Z,57.05
2022-09-28T16:51:48.237Z,57.06
2022-09-28T16:54:37.954Z,57.77
2022-09-28T16:57:06.208Z,57.42
2022-09-28T16:59:33.226Z,57.49
2022-09-28T17:01:59.970Z,57.96
2022-09-28T17:04:26.821Z,57.49
2022-09-28T17:06:55.273Z,57.66
2022-09-28T17:09:22.568Z,57.17
2022-09-28T17:11:56.293Z,57.72
2022-09-28T17:14:24.352Z,58.01
2022-09-28T17:17:12.634Z,58.11
2022-09-28T17:19:40.295Z,57.49
2022-09-28T17:22:08.107Z,58.42
2022-09-28T17:24:35.189Z,58.06
2022-09-28T17:27:03.297Z,57.81
2022-09-28T17:29:30.076Z,57.78
2022-09-28T17:31:56.713Z,57.89
2022-09-28T17:34:23.785Z,57.57
2022-09-28T17:36:50.347Z,57.56
2022-09-28T17:39:19.116Z,58.39
2022-09-28T17:41:46.083Z,57.42
2022-09-28T17:44:16.387Z,57.64
2022-09-28T17:46:49.318Z,57.86
2022-09-28T17:49:17.013Z,57.66
2022-09-28T17:51:43.922Z,57.60
2022-09-28T17:54:11.082Z,58.07
2022-09-28T17:56:37.714Z,57.59
2022-09-28T17:59:07.434Z,57.31
2022-09-28T18:01:38.052Z,57.65
2022-09-28T18:04:06.734Z,57.49
2022-09-28T18:06:33.938Z,58.18
2022-09-28T18:09:03.073Z,58.24
2022-09-28T18:11:31.374Z,58.64
2022-09-28T18:13:58.032Z,57.80
2022-09-28T18:16:24.949Z,58.25
2022-09-28T18:18:51.567Z,58.31
2022-09-28T18:21:18.227Z,57.66
2022-09-28T18:23:44.768Z,58.17
2022-09-28T18:26:15.395Z,57.59
2022-09-28T18:28:41.995Z,58.04
2022-09-28T18:31:10.618Z,58.42
2022-09-28T18:33:52.925Z,58.50
2022-09-28T18:36:19.500Z,57.64
2022-09-28T18:38:46.070Z,58.38
2022-09-28T18:41:15.891Z,58.20
2022-09-28T18:43:44.265Z,57.85
2022-09-28T18:46:11.854Z,57.74
2022-09-28T18:48:40.524Z,58.30
2022-09-28T18:51:12.471Z,58.69
2022-09-28T18:53:40.118Z,57.94
2022-09-28T18:56:13.186Z,58.28
2022-09-28T18:58:41.307Z,58.68
2022-09-28T19:01:30.884Z,58.37
2022-09-28T19:04:03.193Z,58.16
2022-09-28T19:06:31.785Z,58.44
2022-09-28T19:08:58.843Z,58.02
2022-09-28T19:11:25.815Z,58.56
2022-09-28T19:13:54.713Z,58.14
2022-09-28T19:16:28.658Z,57.86
2022-09-28T19:18:58.781Z,58.45
2022-09-28T19:21:26.765Z,58.63
2022-09-28T19:23:55.428Z,58.51
2022-09-28T19:26:25.422Z,57.68
2022-09-28T19:28:52.007Z,58.37
2022-09-28T19:31:19.139Z,58.39
2022-09-28T19:33:46.370Z,57.80
2022-09-28T19:36:24.597Z,57.64
2022-09-28T19:38:52.714Z,58.03
2022-09-28T19:41:43.334Z,58.05
2022-09-28T19:44:19.388Z,58.23
2022-09-28T19:46:46.121Z,58.06
2022-09-28T19:49:18.395Z,58.59
2022-09-28T19:52:11.035Z,58.65
2022-09-28T19:54:36.646Z,58.39
2022-09-28T19:57:08.555Z,58.67
2022-09-28T19:59:37.203Z,58.72
2022-09-28T20:02:05.533Z,57.97
2022-09-28T20:04:32.136Z,58.30
2022-09-28T20:06:59.015Z,58.13
2022-09-28T20:09:25.614Z,58.25
2022-09-28T20:11:53.093Z,58.40
2022-09-28T20:14:21.455Z,58.28
2022-09-28T20:16:50.169Z,57.82
2022-09-28T20:19:19.049Z,57.89
2022-09-28T20:21:48.062Z,58.04
2022-09-28T20:24:16.173Z,58.55
2022-09-28T20:26:43.517Z,57.79
2022-09-28T20:29:10.660Z,58.17
2022-09-28T20:31:37.850Z,58.14
2022-09-28T20:34:05.888Z,58.80
2022-09-28T20:36:33.233Z,58.13
2022-09-28T20:39:01.829Z,58.09
2022-09-28T20:41:35.631Z,58.42
2022-09-28T20:44:05.599Z,58.25
2022-09-28T20:46:34.193Z,58.11
2022-09-28T20:49:00.988Z,58.23
2022-09-28T20:51:27.565Z,57.77
2022-09-28T20:53:56.733Z,58.55
2022-09-28T20:56:40.107Z,58.08
2022-09-28T20:59:12.233Z,58.43
2022-09-28T21:01:39.341Z,58.15
2022-09-28T21:04:08.265Z,58.74
2022-09-28T21:06:37.304Z,58.90
2022-09-28T21:09:05.686Z,59.55
2022-09-28T21:11:34.253Z,59.60
2022-09-28T21:14:02.738Z,59.45
2022-09-28T21:16:31.726Z,59.16
2022-09-28T21:18:59.036Z,59.33
2022-09-28T21:21:26.356Z,59.72
2022-09-28T21:23:54.312Z,59.53
2022-09-28T21:26:26.043Z,59.32
2022-09-28T21:28:54.374Z,59.91
2022-09-28T21:31:27.737Z,59.80
2022-09-28T21:33:56.365Z,59.67
2022-09-28T21:36:22.906Z,60.02
2022-09-28T21:38:49.477Z,60.02
2022-09-28T21:41:16.343Z,59.67
2022-09-28T21:43:43.114Z,59.86
2022-09-28T21:46:09.934Z,59.45
2022-09-28T21:48:36.559Z,60.25
2022-09-28T21:51:06.397Z,59.81
2022-09-28T21:53:35.783Z,59.68
2022-09-28T21:56:04.176Z,60.16
2022-09-28T21:58:33.591Z,60.09
2022-09-28T22:01:09.405Z,59.99
2022-09-28T22:03:36.692Z,59.23
2022-09-28T22:06:04.243Z,60.00
2022-09-28T22:08:31.249Z,59.19
2022-09-28T22:11:03.648Z,59.91
2022-09-28T22:13:32.044Z,59.51
2022-09-28T22:15:58.978Z,59.82
2022-09-28T22:18:27.169Z,59.45
2022-09-28T22:21:11.822Z,59.93
2022-09-28T22:23:39.483Z,59.53
2022-09-28T22:26:11.673Z,59.78
2022-09-28T22:28:39.958Z,59.60
2022-09-28T22:31:06.742Z,59.42
2022-09-28T22:33:34.277Z,59.65
2022-09-28T22:36:00.984Z,59.72
2022-09-28T22:38:28.112Z,59.75
2022-09-28T22:40:56.514Z,59.85
2022-09-28T22:43:25.082Z,59.81
2022-09-28T22:46:13.437Z,60.00
2022-09-28T22:48:40.270Z,59.54
2022-09-28T22:51:07.352Z,60.04
2022-09-28T22:53:35.287Z,59.21
2022-09-28T22:56:05.596Z,60.07
2022-09-28T22:58:36.969Z,59.35
2022-09-28T23:01:11.915Z,59.32
2022-09-28T23:03:40.491Z,59.92
2022-09-28T23:06:08.201Z,59.99
2022-09-28T23:08:35.465Z,59.98
2022-09-28T23:11:02.134Z,59.47
2022-09-28T23:13:30.946Z,59.37
2022-09-28T23:15:58.224Z,60.00
2022-09-28T23:18:27.201Z,59.91
2022-09-28T23:20:59.224Z,59.70
2022-09-28T23:23:26.437Z,59.97
2022-09-28T23:25:53.583Z,59.81
2022-09-28T23:28:22.592Z,59.91
2022-09-28T23:30:49.665Z,60.17
2022-09-28T23:33:17.998Z,59.84
2022-09-28T23:35:44.849Z,60.25
2022-09-28T23:38:13.671Z,60.10
2022-09-28T23:40:43.475Z,59.47
2022-09-28T23:43:10.089Z,60.11
2022-09-28T23:45:36.659Z,59.81
2022-09-28T23:48:03.352Z,60.01
2022-09-28T23:50:29.899Z,59.63
2022-09-28T23:52:56.436Z,59.81
2022-09-28T23:55:23.003Z,59.63
2022-09-28T23:57:49.568Z,59.74
